Stroby Egede, Denmark
Current Conditions -  °F | °C
As of 3:20 AM on Sunday 26 Oct 2014 (Local Time) from EKRK Reporting Station
Haze Haze  
Wind Chill: 50°   Ceiling: 5000
Heat Index: 50°   Visibility: 2.1mi
Dew Point: 50°   Wind: 7mph
Humidity: 100%   Direction: 190°S
Pressure: 30.09"   Gusts: NA
Location:  55.41°N, 12.25°E
Report Text: EKRK 260120Z AUTO 19006KT 3400NDV BR FEW001/// BKN050///10/10 Q1019
Loading
Personal Weather Stations






























Interactive Weather Map New forecast layout! Learn more

10-Day Weather Forecast

Advertisements
Track Severe Weather on mobile